Time;durP1;ratioP1;P1;durP2;ratioP2;P2;SDS_P1;SDS_P2;PMS_P1;PMS_P2;Temp;Humidity;BMP_temperature;BMP_pressure;BME280_temperature;BME280_humidity;BME280_pressure;Samples;Min_cycle;Max_cycle;Signal;HPM_P1;HPM_P2
2022/09/07 00:01:11;;;;;;;7.65;5.03;;;20.30;84.70;;;;;;4134247;28;20382;-85
2022/09/07 00:03:12;;;;;;;9.20;5.75;;;20.30;85.20;;;;;;4114602;28;20105;-85
2022/09/07 00:05:13;;;;;;;10.38;4.55;;;20.30;85.60;;;;;;4131566;28;20042;-83
2022/09/07 00:07:15;;;;;;;13.50;5.38;;;20.30;85.80;;;;;;4114094;28;20047;-86
2022/09/07 00:09:15;;;;;;;8.05;5.20;;;20.20;86.10;;;;;;4130697;28;20374;-85
2022/09/07 00:11:18;;;;;;;8.05;5.30;;;20.10;86.40;;;;;;4131189;28;20386;-85
2022/09/07 00:13:19;;;;;;;10.73;5.18;;;20.00;86.70;;;;;;4131057;28;20529;-85
2022/09/07 00:15:20;;;;;;;7.93;4.60;;;19.90;87.00;;;;;;4097891;29;20466;-85
2022/09/07 00:17:21;;;;;;;8.45;4.78;;;19.80;87.50;;;;;;4113786;28;20042;-85
2022/09/07 00:19:21;;;;;;;9.13;4.90;;;19.80;87.70;;;;;;4114107;28;20055;-85
2022/09/07 00:21:23;;;;;;;7.20;5.07;;;19.80;88.00;;;;;;4113233;28;20185;-85
2022/09/07 00:23:23;;;;;;;7.20;4.75;;;19.70;88.30;;;;;;4129602;28;20058;-86
2022/09/07 00:25:24;;;;;;;9.93;5.28;;;19.80;88.60;;;;;;4131158;28;20476;-85
2022/09/07 00:27:25;;;;;;;11.75;5.78;;;19.80;88.70;;;;;;4130295;28;20039;-85
2022/09/07 00:29:26;;;;;;;9.10;5.80;;;19.80;88.90;;;;;;4111893;28;20494;-85
2022/09/07 00:31:28;;;;;;;8.35;5.25;;;19.80;89.20;;;;;;4146523;28;20120;-85
2022/09/07 00:33:29;;;;;;;9.10;5.40;;;19.50;89.00;;;;;;4147180;28;20157;-85
2022/09/07 00:35:30;;;;;;;7.72;5.45;;;19.50;89.40;;;;;;4146782;28;20045;-85
2022/09/07 00:37:31;;;;;;;12.82;6.57;;;19.50;89.80;;;;;;4113760;28;20181;-85
2022/09/07 00:39:32;;;;;;;10.52;5.63;;;19.50;90.00;;;;;;4149383;28;20049;-84
2022/09/07 00:41:33;;;;;;;7.30;5.30;;;19.50;90.10;;;;;;4150308;28;20050;-85
2022/09/07 00:44:19;;;;;;;7.82;5.55;;;19.50;90.20;;;;;;4133006;28;20058;-85
2022/09/07 00:46:26;;;;;;;8.63;5.30;;;19.50;90.60;;;;;;4135330;28;20050;-85
2022/09/07 00:48:53;;;;;;;11.38;5.40;;;19.50;90.30;;;;;;4132471;28;20512;-85
2022/09/07 00:51:11;;;;;;;10.23;5.45;;;19.50;90.30;;;;;;4128224;28;20141;-85
2022/09/07 00:53:26;;;;;;;8.15;5.47;;;19.50;90.90;;;;;;4132783;28;20093;-85
2022/09/07 00:55:29;;;;;;;7.80;5.82;;;19.50;90.50;;;;;;4133218;28;20034;-85
2022/09/07 00:57:31;;;;;;;7.97;5.72;;;19.50;90.50;;;;;;4133444;28;20050;-85
2022/09/07 00:59:38;;;;;;;9.10;6.15;;;19.50;90.50;;;;;;4100600;28;20065;-84
2022/09/07 01:01:40;;;;;;;7.72;5.72;;;19.50;90.50;;;;;;4133693;28;20485;-84
2022/09/07 01:03:46;;;;;;;11.07;5.10;;;19.50;90.50;;;;;;4132384;28;20050;-84
2022/09/07 01:05:59;;;;;;;10.02;6.07;;;19.50;90.70;;;;;;4149646;28;20050;-85
2022/09/07 01:08:00;;;;;;;9.10;5.80;;;19.50;90.80;;;;;;4150225;28;20145;-84
2022/09/07 01:10:01;;;;;;;9.40;6.03;;;19.40;90.90;;;;;;4149277;28;20096;-84
2022/09/07 01:12:03;;;;;;;9.18;5.63;;;19.40;90.70;;;;;;4132324;28;20042;-84
2022/09/07 01:14:08;;;;;;;10.23;6.28;;;19.40;90.70;;;;;;4150027;28;20104;-85
2022/09/07 01:16:30;;;;;;;8.95;5.40;;;19.30;90.90;;;;;;4132322;28;20448;-84
2022/09/07 01:18:52;;;;;;;8.55;6.60;;;19.30;91.10;;;;;;4149580;28;20038;-84
2022/09/07 01:21:19;;;;;;;8.50;5.75;;;19.30;91.20;;;;;;4143189;28;20046;-85
2022/09/07 01:23:42;;;;;;;10.82;6.35;;;19.40;91.80;;;;;;4127482;28;20057;-85
2022/09/07 01:26:13;;;;;;;9.25;6.50;;;19.30;91.60;;;;;;4149555;28;20046;-84
2022/09/07 01:28:21;;;;;;;9.13;5.85;;;19.20;91.50;;;;;;4148171;28;20176;-84
2022/09/07 01:30:23;;;;;;;8.48;6.18;;;19.10;91.50;;;;;;4148598;28;20061;-83
2022/09/07 01:32:26;;;;;;;12.05;6.50;;;19.20;91.60;;;;;;4133465;28;20541;-83
2022/09/07 01:34:27;;;;;;;12.90;6.60;;;19.10;91.60;;;;;;4133135;28;20105;-84
2022/09/07 01:36:39;;;;;;;7.95;6.20;;;19.00;91.50;;;;;;4133417;28;20042;-84
2022/09/07 01:38:48;;;;;;;10.00;6.60;;;18.90;91.70;;;;;;4149329;28;20042;-84
2022/09/07 01:40:56;;;;;;;9.23;6.35;;;18.80;91.70;;;;;;4131692;28;20133;-84
2022/09/07 01:43:05;;;;;;;14.90;6.80;;;18.60;92.10;;;;;;4149126;28;20049;-84
2022/09/07 01:45:11;;;;;;;21.88;7.72;;;18.50;92.10;;;;;;4149332;28;20519;-84
2022/09/07 01:47:29;;;;;;;10.25;6.65;;;18.40;92.40;;;;;;4149434;28;20069;-84
2022/09/07 01:49:40;;;;;;;13.23;6.28;;;18.20;93.10;;;;;;4131189;28;20132;-84
2022/09/07 01:51:46;;;;;;;13.55;6.72;;;18.40;93.70;;;;;;4149268;28;20381;-84
2022/09/07 01:53:54;;;;;;;13.75;6.63;;;18.00;93.50;;;;;;4148191;28;20050;-84
2022/09/07 01:56:03;;;;;;;12.30;7.90;;;18.00;94.00;;;;;;4143908;28;20061;-84
2022/09/07 01:58:26;;;;;;;12.85;7.00;;;18.00;94.10;;;;;;4149319;28;20077;-84
2022/09/07 02:00:30;;;;;;;11.38;7.00;;;18.10;94.80;;;;;;4131510;28;20062;-84
2022/09/07 02:02:41;;;;;;;10.32;6.35;;;18.10;94.40;;;;;;4149008;28;20492;-84
2022/09/07 02:04:55;;;;;;;11.82;7.03;;;18.10;94.60;;;;;;4131270;28;20468;-85
2022/09/07 02:07:23;;;;;;;16.00;6.80;;;18.10;95.00;;;;;;4131744;28;20133;-85
2022/09/07 02:09:46;;;;;;;14.07;6.82;;;18.10;95.40;;;;;;4131546;28;20618;-85
2022/09/07 02:11:49;;;;;;;12.20;6.22;;;18.10;95.30;;;;;;4146810;28;20561;-84
2022/09/07 02:13:52;;;;;;;9.93;5.68;;;18.20;95.50;;;;;;4132677;28;20042;-84
2022/09/07 02:16:04;;;;;;;8.35;4.88;;;18.20;95.40;;;;;;4132618;28;20042;-84
2022/09/07 02:18:07;;;;;;;9.10;4.85;;;18.20;95.80;;;;;;4132330;28;20047;-85
2022/09/07 02:20:12;;;;;;;9.05;4.75;;;18.30;95.70;;;;;;4132860;28;20050;-86
2022/09/07 02:22:17;;;;;;;6.95;4.78;;;18.30;95.80;;;;;;4132543;28;20120;-85
2022/09/07 02:24:24;;;;;;;7.63;4.50;;;18.30;95.90;;;;;;4132052;28;20048;-85
2022/09/07 02:26:27;;;;;;;10.90;5.05;;;18.30;95.90;;;;;;4131835;28;20128;-85
2022/09/07 02:28:32;;;;;;;8.50;4.82;;;18.20;96.20;;;;;;4115097;28;20126;-85
2022/09/07 02:30:32;;;;;;;8.68;4.85;;;18.20;96.40;;;;;;4126479;28;20524;-85
2022/09/07 02:32:33;;;;;;;12.88;5.45;;;18.20;96.70;;;;;;4114930;28;20110;-85
2022/09/07 02:34:34;;;;;;;11.77;5.00;;;18.20;96.90;;;;;;4132516;28;20129;-85
2022/09/07 02:36:43;;;;;;;22.35;5.28;;;18.20;97.10;;;;;;4115098;28;20055;-85
2022/09/07 02:38:43;;;;;;;6.78;5.15;;;18.30;97.40;;;;;;4131242;28;20089;-84
2022/09/07 02:40:53;;;;;;;9.60;5.18;;;18.30;97.50;;;;;;4114658;28;20054;-84
2022/09/07 02:42:54;;;;;;;;;;;18.30;97.70;;;;;;4132372;28;20496;-84
2022/09/07 02:44:55;;;;;;;8.02;4.70;;;18.30;99.10;;;;;;4132311;28;19925;-84
2022/09/07 02:47:22;;;;;;;9.98;4.80;;;18.30;97.60;;;;;;4132580;28;20046;-84
2022/09/07 02:50:08;;;;;;;6.40;4.35;;;18.30;98.10;;;;;;4130990;28;20151;-85
2022/09/07 02:52:29;;;;;;;10.20;4.40;;;18.30;98.00;;;;;;4148089;28;20524;-84
2022/09/07 02:54:48;;;;;;;7.38;4.15;;;18.40;97.80;;;;;;4130192;28;20468;-84
2022/09/07 02:57:52;;;;;;;7.38;4.35;;;18.20;98.10;;;;;;4147856;28;20054;-84
2022/09/07 03:00:12;;;;;;;8.88;4.68;;;18.20;98.50;;;;;;4106483;28;20060;-84
2022/09/07 03:02:58;;;;;;;14.02;5.60;;;18.10;98.40;;;;;;4130492;28;20125;-84
2022/09/07 03:05:09;;;;;;;7.70;4.47;;;18.20;98.60;;;;;;4100624;28;20472;-84
2022/09/07 03:07:21;;;;;;;8.30;4.60;;;18.20;98.50;;;;;;4131063;28;20050;-84
2022/09/07 03:09:26;;;;;;;7.57;5.00;;;18.20;98.50;;;;;;4132085;28;20082;-85
2022/09/07 03:11:28;;;;;;;7.40;4.43;;;18.20;98.50;;;;;;4131699;28;20039;-85
2022/09/07 03:13:29;;;;;;;8.13;3.90;;;18.20;98.50;;;;;;4131819;28;20404;-85
2022/09/07 03:15:29;;;;;;;5.93;3.65;;;18.20;98.70;;;;;;4131598;28;20089;-84
2022/09/07 03:17:30;;;;;;;8.32;3.83;;;18.20;98.70;;;;;;4129812;28;20504;-84
2022/09/07 03:19:31;;;;;;;7.00;4.53;;;18.20;98.80;;;;;;4131529;28;20496;-84
2022/09/07 03:21:31;;;;;;;7.07;4.15;;;18.20;98.90;;;;;;4128391;28;20456;-84
2022/09/07 03:23:32;;;;;;;6.63;4.40;;;18.10;98.90;;;;;;4132736;28;20068;-84
2022/09/07 03:25:33;;;;;;;7.35;3.90;;;18.10;99.00;;;;;;4131525;28;20049;-84
2022/09/07 03:27:34;;;;;;;7.78;4.53;;;18.10;99.10;;;;;;4140789;28;20406;-84
2022/09/07 03:29:35;;;;;;;5.40;4.03;;;18.10;99.20;;;;;;4146298;28;20089;-84
2022/09/07 03:31:36;;;;;;;5.88;3.42;;;18.10;99.30;;;;;;4130497;28;20527;-83
2022/09/07 03:33:36;;;;;;;5.30;3.50;;;18.10;99.30;;;;;;4147698;28;20048;-84
2022/09/07 03:35:37;;;;;;;4.72;3.75;;;18.20;99.30;;;;;;4147745;28;20041;-84
2022/09/07 03:37:38;;;;;;;4.72;3.28;;;18.20;99.50;;;;;;4147164;28;20038;-84
2022/09/07 03:39:38;;;;;;;7.30;3.60;;;18.10;99.60;;;;;;4145051;28;20034;-84
2022/09/07 03:41:39;;;;;;;6.07;3.53;;;18.10;99.60;;;;;;4134469;28;20117;-84
2022/09/07 03:43:40;;;;;;;6.43;3.47;;;18.10;99.70;;;;;;4131554;28;20124;-84
2022/09/07 03:45:41;;;;;;;8.15;3.90;;;18.10;99.80;;;;;;4131419;28;20109;-84
2022/09/07 03:47:43;;;;;;;4.57;3.08;;;18.10;99.80;;;;;;4146856;28;20081;-84
2022/09/07 03:49:43;;;;;;;5.70;3.20;;;18.10;99.80;;;;;;4147796;28;20049;-84
2022/09/07 03:51:44;;;;;;;8.48;3.53;;;18.10;99.90;;;;;;4147412;28;20133;-84
2022/09/07 03:53:45;;;;;;;7.90;3.60;;;18.10;99.90;;;;;;4146613;28;20048;-84
2022/09/07 03:55:58;;;;;;;5.15;3.22;;;18.10;99.90;;;;;;4145715;28;20050;-84
2022/09/07 03:57:59;;;;;;;6.20;3.58;;;18.00;99.90;;;;;;4143660;28;20077;-84
2022/09/07 04:00:00;;;;;;;4.55;3.40;;;18.00;99.90;;;;;;4128756;28;20051;-85
2022/09/07 04:02:01;;;;;;;6.32;3.47;;;17.90;99.90;;;;;;4146862;28;20084;-84
2022/09/07 04:04:02;;;;;;;5.00;3.17;;;17.90;99.90;;;;;;4147324;28;20092;-85
2022/09/07 04:06:03;;;;;;;5.78;3.15;;;17.90;99.90;;;;;;4130230;28;20049;-85
2022/09/07 04:08:04;;;;;;;5.55;3.50;;;17.90;99.90;;;;;;4147503;28;20056;-85
2022/09/07 04:10:05;;;;;;;5.13;3.47;;;17.90;99.90;;;;;;4129852;28;20054;-85
2022/09/07 04:12:05;;;;;;;6.28;3.83;;;17.90;99.90;;;;;;4147625;28;20050;-85
2022/09/07 04:14:07;;;;;;;6.75;4.22;;;17.90;99.90;;;;;;4150404;28;20080;-85
2022/09/07 04:16:13;;;;;;;4.50;3.75;;;17.90;99.90;;;;;;4127131;28;20543;-85
2022/09/07 04:18:14;;;;;;;8.18;4.30;;;17.90;99.90;;;;;;4148576;28;20498;-86
2022/09/07 04:20:14;;;;;;;7.93;4.07;;;17.80;99.90;;;;;;4139337;28;20046;-84
2022/09/07 04:22:15;;;;;;;7.70;4.40;;;17.80;99.90;;;;;;4136122;28;20489;-84
2022/09/07 04:24:17;;;;;;;5.80;4.07;;;17.70;99.90;;;;;;4134199;28;20065;-84
2022/09/07 04:26:23;;;;;;;11.05;4.53;;;17.70;99.90;;;;;;4134678;28;20145;-84
2022/09/07 04:28:24;;;;;;;9.13;4.90;;;17.70;99.90;;;;;;4134432;28;20046;-85
2022/09/07 04:30:25;;;;;;;7.50;4.65;;;17.70;99.90;;;;;;4117127;28;20137;-85
2022/09/07 04:32:25;;;;;;;8.30;4.57;;;17.60;99.90;;;;;;4134441;28;20081;-84
2022/09/07 04:34:26;;;;;;;9.48;5.15;;;17.60;99.90;;;;;;4133735;28;20042;-84
2022/09/07 04:36:27;;;;;;;9.13;5.03;;;17.60;99.90;;;;;;4136520;28;20046;-85
2022/09/07 04:38:28;;;;;;;6.85;4.82;;;17.60;99.90;;;;;;4150451;28;20457;-84
2022/09/07 04:40:28;;;;;;;10.45;5.68;;;17.60;99.90;;;;;;4149530;28;20097;-84
2022/09/07 04:42:29;;;;;;;8.65;5.22;;;17.60;99.90;;;;;;4150140;28;20056;-83
2022/09/07 04:44:31;;;;;;;10.35;6.50;;;17.60;99.90;;;;;;4150387;28;20049;-84
2022/09/07 04:46:34;;;;;;;8.60;5.90;;;17.60;99.90;;;;;;4149911;28;20041;-84
2022/09/07 04:48:35;;;;;;;8.60;5.20;;;17.60;99.90;;;;;;4150337;28;20044;-84
2022/09/07 04:50:36;;;;;;;8.75;5.72;;;17.70;99.90;;;;;;4150334;28;20060;-84
2022/09/07 04:52:37;;;;;;;9.30;6.22;;;17.70;99.90;;;;;;4150652;28;20077;-84
2022/09/07 04:54:38;;;;;;;10.40;6.53;;;17.70;99.90;;;;;;4149932;28;20078;-83
2022/09/07 04:56:39;;;;;;;10.98;7.10;;;17.70;99.90;;;;;;4150786;28;20042;-84
2022/09/07 04:58:39;;;;;;;11.32;7.00;;;17.70;99.90;;;;;;4150485;28;20048;-84
2022/09/07 05:00:40;;;;;;;13.60;7.82;;;17.70;99.90;;;;;;4150406;28;20056;-83
2022/09/07 05:02:41;;;;;;;11.63;7.28;;;17.70;99.90;;;;;;4132928;28;20353;-84
2022/09/07 05:04:42;;;;;;;10.85;7.03;;;17.70;99.90;;;;;;4150504;28;20042;-84
2022/09/07 05:06:42;;;;;;;9.73;7.00;;;17.70;99.90;;;;;;4132215;28;20050;-84
2022/09/07 05:08:46;;;;;;;11.55;7.43;;;17.70;99.90;;;;;;4150232;28;20072;-86
2022/09/07 05:10:51;;;;;;;13.82;8.95;;;17.70;99.90;;;;;;4136734;28;20047;-85
2022/09/07 05:12:52;;;;;;;13.25;7.38;;;17.70;99.90;;;;;;4133439;28;20048;-85
2022/09/07 05:14:52;;;;;;;12.85;8.05;;;17.70;99.90;;;;;;4134005;28;20038;-85
2022/09/07 05:16:53;;;;;;;11.25;7.90;;;17.70;99.90;;;;;;4133189;28;20104;-85
2022/09/07 05:18:56;;;;;;;11.88;8.07;;;17.70;99.90;;;;;;4132493;28;20046;-85
2022/09/07 05:21:07;;;;;;;12.02;8.15;;;17.70;99.90;;;;;;4116825;28;20051;-85
2022/09/07 05:23:08;;;;;;;14.75;7.85;;;17.70;99.90;;;;;;4133846;28;20042;-84
2022/09/07 05:25:08;;;;;;;10.68;7.93;;;17.70;99.90;;;;;;4116377;28;20061;-85
2022/09/07 05:27:09;;;;;;;11.10;8.15;;;17.70;99.90;;;;;;4132832;28;20046;-85
2022/09/07 05:29:10;;;;;;;14.05;8.75;;;17.70;99.90;;;;;;4135276;28;20148;-82
2022/09/07 05:31:14;;;;;;;15.40;8.40;;;17.70;99.90;;;;;;4147238;28;20048;-82
2022/09/07 05:33:15;;;;;;;14.45;9.15;;;17.70;99.90;;;;;;4138973;28;20422;-83
2022/09/07 05:35:17;;;;;;;12.73;8.93;;;17.70;99.90;;;;;;4135453;28;20193;-84
2022/09/07 05:37:18;;;;;;;13.35;8.95;;;17.70;99.90;;;;;;4135374;28;20170;-83
2022/09/07 05:39:19;;;;;;;13.18;8.07;;;17.70;99.90;;;;;;4135343;28;20046;-83
2022/09/07 05:41:23;;;;;;;12.57;8.63;;;17.70;99.90;;;;;;4135297;28;20429;-84
2022/09/07 05:43:25;;;;;;;14.52;9.35;;;17.70;99.90;;;;;;4117879;28;20114;-83
2022/09/07 05:45:25;;;;;;;16.88;9.30;;;17.70;99.90;;;;;;4159491;28;20053;-83
2022/09/07 05:47:26;;;;;;;13.50;8.88;;;17.70;99.90;;;;;;4167038;28;20113;-82
2022/09/07 05:49:27;;;;;;;12.10;8.73;;;17.80;99.90;;;;;;4153527;28;20038;-84
2022/09/07 05:51:28;;;;;;;17.48;9.68;;;17.70;99.90;;;;;;4154174;28;20129;-83
2022/09/07 05:53:29;;;;;;;15.93;8.85;;;17.80;99.90;;;;;;4150038;28;20042;-83
2022/09/07 05:55:30;;;;;;;15.18;9.15;;;17.80;99.90;;;;;;4149523;28;20077;-84
2022/09/07 05:57:31;;;;;;;13.73;9.48;;;17.70;99.90;;;;;;4150317;28;20056;-84
2022/09/07 05:59:32;;;;;;;17.63;9.00;;;17.70;99.90;;;;;;4150194;28;20426;-84
2022/09/07 06:01:34;;;;;;;15.95;10.00;;;17.70;99.90;;;;;;4132836;28;20077;-83
2022/09/07 06:03:36;;;;;;;15.85;10.38;;;17.70;99.90;;;;;;4150529;28;20050;-84
2022/09/07 06:05:37;;;;;;;13.80;9.57;;;17.70;99.90;;;;;;4149813;28;20037;-83
2022/09/07 06:07:38;;;;;;;19.45;9.93;;;17.70;99.90;;;;;;4145540;28;20100;-83
2022/09/07 06:09:39;;;;;;;16.33;9.77;;;17.70;99.90;;;;;;4150452;28;20053;-83
2022/09/07 06:11:40;;;;;;;14.75;10.30;;;17.70;99.90;;;;;;4149923;28;20060;-83
2022/09/07 06:13:41;;;;;;;21.80;11.05;;;17.70;99.90;;;;;;4148802;28;20076;-83
2022/09/07 06:15:42;;;;;;;18.52;10.57;;;17.70;99.90;;;;;;4148858;28;20125;-83
2022/09/07 06:17:43;;;;;;;48.45;12.98;;;17.60;99.90;;;;;;4144075;28;20104;-83
2022/09/07 06:19:43;;;;;;;18.42;11.25;;;17.60;99.90;;;;;;4148974;28;20045;-83
2022/09/07 06:21:44;;;;;;;27.42;11.90;;;17.60;99.90;;;;;;4150000;28;20040;-83
2022/09/07 06:23:46;;;;;;;21.45;11.55;;;17.60;99.90;;;;;;4148840;28;20107;-83
2022/09/07 06:25:48;;;;;;;16.02;11.20;;;17.60;99.90;;;;;;4149223;28;20042;-83
2022/09/07 06:27:48;;;;;;;20.88;12.00;;;17.60;99.90;;;;;;4149276;28;20038;-82
2022/09/07 06:29:49;;;;;;;20.35;11.60;;;17.60;99.90;;;;;;4149805;28;20451;-83
2022/09/07 06:31:50;;;;;;;17.60;11.02;;;17.60;99.90;;;;;;4149969;28;20042;-83
2022/09/07 06:33:51;;;;;;;19.60;11.68;;;17.60;99.90;;;;;;4149583;28;20534;-83
2022/09/07 06:35:56;;;;;;;19.80;11.40;;;17.60;99.90;;;;;;4149861;28;20049;-82
2022/09/07 06:37:57;;;;;;;19.45;11.40;;;17.60;99.90;;;;;;4148789;28;20501;-82
2022/09/07 06:39:58;;;;;;;17.38;11.27;;;17.60;99.90;;;;;;4136461;28;20143;-83
2022/09/07 06:41:59;;;;;;;17.45;11.13;;;17.60;99.90;;;;;;4133286;28;20055;-82
2022/09/07 06:44:00;;;;;;;25.77;11.70;;;17.60;99.90;;;;;;4134172;28;20488;-82
2022/09/07 06:46:01;;;;;;;19.13;11.75;;;17.60;99.90;;;;;;4132830;28;20084;-83
2022/09/07 06:48:02;;;;;;;19.40;12.07;;;17.60;99.90;;;;;;4132906;28;20041;-83
2022/09/07 06:50:03;;;;;;;18.85;11.63;;;17.50;99.90;;;;;;4132418;28;20046;-83
2022/09/07 06:52:03;;;;;;;19.88;11.88;;;17.60;99.90;;;;;;4132817;28;20050;-84
2022/09/07 06:54:05;;;;;;;19.20;11.73;;;17.50;99.90;;;;;;4132186;28;20053;-83
2022/09/07 06:56:09;;;;;;;18.70;11.48;;;17.50;99.90;;;;;;4131219;28;20527;-83
2022/09/07 06:58:10;;;;;;;23.65;11.52;;;17.50;99.90;;;;;;4133142;28;20046;-82
2022/09/07 07:00:11;;;;;;;17.77;11.85;;;17.60;99.90;;;;;;4132083;28;20045;-82
2022/09/07 07:02:13;;;;;;;18.67;11.65;;;17.60;99.90;;;;;;4131893;28;20054;-82
2022/09/07 07:04:14;;;;;;;17.88;11.32;;;17.60;99.90;;;;;;4132797;28;20682;-82
2022/09/07 07:06:15;;;;;;;20.25;12.25;;;17.60;99.90;;;;;;4132974;28;20042;-82
2022/09/07 07:08:16;;;;;;;19.75;12.48;;;17.50;99.90;;;;;;4133290;28;20053;-82
2022/09/07 07:10:16;;;;;;;15.95;11.68;;;17.50;99.90;;;;;;4132445;28;20046;-82
2022/09/07 07:12:17;;;;;;;17.55;12.25;;;17.50;99.90;;;;;;4132732;28;20121;-82
2022/09/07 07:14:18;;;;;;;21.27;13.23;;;17.50;99.90;;;;;;4132816;28;20605;-82
2022/09/07 07:16:18;;;;;;;23.70;12.93;;;17.50;99.90;;;;;;4137146;28;20046;-82
2022/09/07 07:18:19;;;;;;;20.83;13.93;;;17.50;99.90;;;;;;4140882;28;20046;-82
2022/09/07 07:20:20;;;;;;;22.23;12.75;;;17.50;99.90;;;;;;4115810;28;20453;-83
2022/09/07 07:22:21;;;;;;;22.73;14.10;;;17.60;99.90;;;;;;4140152;28;20041;-83
2022/09/07 07:24:22;;;;;;;22.80;13.23;;;17.70;99.90;;;;;;4148414;28;20511;-82
2022/09/07 07:26:26;;;;;;;23.65;15.30;;;17.70;99.90;;;;;;4148121;28;20041;-83
2022/09/07 07:28:27;;;;;;;23.73;14.25;;;17.80;99.90;;;;;;4147765;28;20045;-83
2022/09/07 07:30:28;;;;;;;21.27;13.85;;;17.80;99.90;;;;;;4147915;28;20046;-83
2022/09/07 07:32:30;;;;;;;23.70;14.05;;;17.80;99.90;;;;;;4128775;28;20050;-86
2022/09/07 07:34:30;;;;;;;21.55;13.82;;;18.00;99.90;;;;;;4146271;28;20049;-83
2022/09/07 07:36:31;;;;;;;20.92;13.23;;;18.00;99.90;;;;;;4149487;28;20041;-84
2022/09/07 07:38:32;;;;;;;24.88;14.77;;;18.10;99.90;;;;;;4142373;28;20093;-85
2022/09/07 07:40:33;;;;;;;22.15;14.15;;;18.10;99.90;;;;;;4125531;28;20088;-83
2022/09/07 07:42:35;;;;;;;22.63;15.15;;;18.10;99.90;;;;;;4165039;28;20128;-82
2022/09/07 07:44:36;;;;;;;22.83;14.32;;;18.10;99.90;;;;;;4140385;28;20050;-83
2022/09/07 07:46:38;;;;;;;26.08;14.32;;;18.10;99.90;;;;;;4115126;28;20520;-83
2022/09/07 07:48:39;;;;;;;23.27;14.82;;;18.10;99.90;;;;;;4133086;28;20057;-83
2022/09/07 07:50:40;;;;;;;23.60;13.77;;;18.20;99.90;;;;;;4133299;28;20142;-83
2022/09/07 07:52:41;;;;;;;26.60;14.02;;;18.10;99.90;;;;;;4133140;28;20106;-83
2022/09/07 07:54:42;;;;;;;19.52;13.25;;;18.10;99.90;;;;;;4132698;28;20420;-82
2022/09/07 07:56:43;;;;;;;18.05;12.55;;;18.10;99.90;;;;;;4115684;28;20066;-83
2022/09/07 07:58:46;;;;;;;18.90;11.75;;;18.10;99.90;;;;;;4132327;28;20046;-84
2022/09/07 08:00:48;;;;;;;18.67;11.50;;;18.10;99.90;;;;;;4116652;28;20126;-84
2022/09/07 08:02:48;;;;;;;18.83;11.70;;;18.10;99.90;;;;;;4133262;28;20046;-83
2022/09/07 08:04:49;;;;;;;16.02;11.07;;;18.10;99.90;;;;;;4132479;28;20046;-83
2022/09/07 08:06:50;;;;;;;23.30;12.32;;;18.20;99.90;;;;;;4133139;28;20385;-83
2022/09/07 08:08:51;;;;;;;18.42;11.48;;;18.10;99.90;;;;;;4133137;28;20088;-83
2022/09/07 08:10:52;;;;;;;17.42;11.15;;;18.10;99.90;;;;;;4133096;28;20042;-83
2022/09/07 08:12:53;;;;;;;23.70;11.95;;;18.10;99.90;;;;;;4134560;28;20554;-83
2022/09/07 08:14:54;;;;;;;23.48;12.95;;;18.10;99.90;;;;;;4134686;28;20046;-84
2022/09/07 08:16:55;;;;;;;21.08;12.75;;;18.10;99.90;;;;;;4134651;28;20105;-83
2022/09/07 08:18:57;;;;;;;24.25;13.55;;;18.10;99.90;;;;;;4131947;28;20114;-84
2022/09/07 08:21:03;;;;;;;20.27;12.65;;;18.20;99.90;;;;;;4115723;28;20113;-83
2022/09/07 08:23:06;;;;;;;18.25;11.60;;;18.20;99.90;;;;;;4133732;28;20046;-83
2022/09/07 08:25:07;;;;;;;19.17;12.68;;;18.30;99.90;;;;;;4115941;28;20130;-82
2022/09/07 08:27:08;;;;;;;19.02;13.02;;;18.30;99.90;;;;;;4133167;28;20052;-83
2022/09/07 08:29:08;;;;;;;20.77;13.52;;;18.30;99.90;;;;;;4132957;28;20505;-83
2022/09/07 08:31:12;;;;;;;21.77;13.98;;;18.30;99.90;;;;;;4132567;28;20129;-83
2022/09/07 08:33:13;;;;;;;24.38;13.48;;;18.30;99.90;;;;;;4132689;28;20096;-83
2022/09/07 08:35:14;;;;;;;21.45;14.30;;;18.40;99.90;;;;;;4142351;28;20054;-82
2022/09/07 08:37:15;;;;;;;22.00;13.48;;;18.40;99.90;;;;;;4130627;28;20045;-83
2022/09/07 08:39:15;;;;;;;23.90;13.70;;;18.40;99.90;;;;;;4152209;28;20048;-83
2022/09/07 08:41:19;;;;;;;22.15;13.75;;;18.40;99.90;;;;;;4146387;28;20046;-83
2022/09/07 08:43:43;;;;;;;23.15;14.55;;;18.50;99.90;;;;;;4129940;28;20130;-83
2022/09/07 08:45:50;;;;;;;23.52;13.02;;;18.50;99.90;;;;;;4130616;28;20405;-83
2022/09/07 08:47:51;;;;;;;20.85;13.90;;;18.60;99.90;;;;;;4129611;28;20057;-83
2022/09/07 08:50:37;;;;;;;18.17;12.50;;;18.60;99.90;;;;;;4130833;28;20449;-83
2022/09/07 08:52:51;;;;;;;21.50;14.05;;;18.60;99.90;;;;;;4127029;28;20572;-85
2022/09/07 08:55:04;;;;;;;21.60;14.40;;;18.60;99.90;;;;;;4131165;28;20038;-84
2022/09/07 08:57:05;;;;;;;21.60;13.57;;;18.60;99.90;;;;;;4133881;28;20038;-84
2022/09/07 08:59:15;;;;;;;21.83;14.45;;;18.60;99.90;;;;;;4132687;28;20042;-84
2022/09/07 09:01:31;;;;;;;20.40;13.00;;;18.60;99.90;;;;;;4136475;28;20070;-84
2022/09/07 09:03:32;;;;;;;19.77;13.20;;;18.60;99.90;;;;;;4135861;28;20056;-85
2022/09/07 09:05:57;;;;;;;19.27;12.02;;;18.60;99.90;;;;;;4135091;28;20424;-85
2022/09/07 09:08:13;;;;;;;23.65;14.52;;;18.70;99.90;;;;;;4135476;28;20369;-84
2022/09/07 09:10:41;;;;;;;22.45;13.32;;;18.70;99.90;;;;;;4102409;29;20055;-84
2022/09/07 09:12:54;;;;;;;20.50;13.50;;;18.80;99.90;;;;;;4135211;28;20061;-84
2022/09/07 09:15:25;;;;;;;21.83;13.90;;;18.80;99.90;;;;;;4117060;28;20332;-84
2022/09/07 09:17:32;;;;;;;21.95;13.80;;;18.80;99.90;;;;;;4134883;28;20042;-86
2022/09/07 09:20:06;;;;;;;25.95;14.05;;;18.80;99.90;;;;;;4134669;28;20046;-84
2022/09/07 09:22:09;;;;;;;17.83;12.77;;;19.00;99.90;;;;;;4135267;28;20054;-84
2022/09/07 09:24:17;;;;;;;21.70;13.10;;;19.20;99.90;;;;;;4135159;28;20057;-84
2022/09/07 09:26:23;;;;;;;19.27;12.53;;;19.40;99.90;;;;;;4134674;28;20046;-84
2022/09/07 09:28:24;;;;;;;22.83;12.93;;;19.60;99.90;;;;;;4118169;28;20389;-85
2022/09/07 09:30:27;;;;;;;19.45;13.13;;;19.90;99.90;;;;;;4118412;28;20457;-87
2022/09/07 09:32:40;;;;;;;18.90;12.55;;;20.20;99.90;;;;;;4117561;28;20055;-84
2022/09/07 09:35:22;;;;;;;20.95;11.98;;;20.60;99.90;;;;;;4134926;28;20049;-85
2022/09/07 09:37:36;;;;;;;17.58;11.85;;;21.00;99.90;;;;;;4127785;28;20061;-85
2022/09/07 09:45:20;;;;;;;14.15;10.00;;;21.10;99.50;;;;;;3326682;28;20064;-85
2022/09/07 09:47:34;;;;;;;17.88;9.93;;;20.90;99.70;;;;;;4152299;28;20046;-85
2022/09/07 09:49:37;;;;;;;18.08;10.73;;;20.90;99.90;;;;;;4150587;28;20038;-85
2022/09/07 09:51:44;;;;;;;16.67;10.63;;;20.90;99.90;;;;;;4152102;28;20057;-87
2022/09/07 09:54:04;;;;;;;16.70;11.30;;;20.80;99.90;;;;;;4151158;28;20376;-86
2022/09/07 09:56:06;;;;;;;15.02;10.60;;;20.70;99.90;;;;;;4151437;28;20105;-86
2022/09/07 09:58:33;;;;;;;15.63;10.68;;;20.60;99.90;;;;;;4151596;28;20068;-85
2022/09/07 10:00:34;;;;;;;19.50;11.00;;;20.80;99.90;;;;;;4125347;28;20058;-85
2022/09/07 10:02:35;;;;;;;14.25;9.55;;;20.90;99.90;;;;;;4152164;28;20085;-86
2022/09/07 10:04:36;;;;;;;13.52;9.48;;;20.90;99.80;;;;;;4134290;28;20057;-86
2022/09/07 10:06:36;;;;;;;15.13;9.35;;;20.80;99.70;;;;;;4150499;28;20077;-85
2022/09/07 10:08:37;;;;;;;14.48;9.98;;;20.80;99.70;;;;;;4150955;28;20054;-86
2022/09/07 10:10:56;;;;;;;17.88;10.07;;;20.70;99.90;;;;;;4133199;28;20057;-85
2022/09/07 10:12:57;;;;;;;22.30;10.95;;;20.70;99.70;;;;;;4134288;28;20137;-86
2022/09/07 10:15:03;;;;;;;16.13;9.25;;;20.70;99.70;;;;;;4133597;28;20057;-85
2022/09/07 10:17:35;;;;;;;12.23;9.05;;;20.70;99.70;;;;;;4150010;28;20077;-85
2022/09/07 10:19:38;;;;;;;16.30;10.05;;;20.80;99.90;;;;;;4138228;28;20129;-85
2022/09/07 10:21:38;;;;;;;14.00;9.65;;;20.90;99.80;;;;;;4151415;28;20053;-88
2022/09/07 10:23:39;;;;;;;14.80;9.68;;;21.00;99.90;;;;;;4151091;28;20050;-87
2022/09/07 10:25:44;;;;;;;15.00;9.57;;;21.10;99.70;;;;;;4151077;28;20046;-85
2022/09/07 10:27:45;;;;;;;14.07;9.00;;;21.10;99.50;;;;;;4149873;28;20042;-86
2022/09/07 10:29:46;;;;;;;14.77;9.02;;;21.20;99.30;;;;;;4149679;28;20614;-85
2022/09/07 10:31:55;;;;;;;15.15;9.07;;;21.30;99.10;;;;;;4150248;28;20053;-86
2022/09/07 10:34:21;;;;;;;17.02;9.00;;;21.50;98.80;;;;;;4148052;28;20096;-86
2022/09/07 10:36:52;;;;;;;13.25;8.00;;;22.00;98.80;;;;;;4147552;28;20490;-86
2022/09/07 10:39:00;;;;;;;11.10;8.20;;;22.40;98.60;;;;;;4150901;28;20093;-86
2022/09/07 10:41:06;;;;;;;12.30;7.93;;;22.60;97.60;;;;;;4133114;28;20443;-86
2022/09/07 10:43:22;;;;;;;10.52;6.53;;;22.90;97.80;;;;;;4148754;28;20046;-86
2022/09/07 10:45:34;;;;;;;12.30;6.70;;;23.00;96.80;;;;;;4147831;28;20050;-86
2022/09/07 10:47:42;;;;;;;8.00;6.07;;;22.90;96.10;;;;;;4114528;28;20547;-86
2022/09/07 10:49:55;;;;;;;9.00;5.63;;;22.90;96.00;;;;;;4131693;28;20049;-87